createdAt,value
2022-11-14T10:27:28.324Z,26.30
2022-11-14T10:33:17.013Z,37.70
2022-11-14T10:39:22.116Z,29.60
2022-11-14T10:44:51.166Z,29.80
2022-11-14T10:50:41.100Z,34.30
2022-11-14T10:56:04.775Z,33.50
2022-11-14T11:01:42.219Z,29.20
2022-11-14T11:07:08.470Z,25.50
2022-11-14T11:12:46.443Z,28.30
2022-11-14T11:18:36.713Z,26.10
2022-11-14T11:23:57.757Z,24.60
2022-11-14T11:29:19.955Z,26.40
2022-11-14T11:34:40.646Z,25.70
2022-11-14T11:40:04.552Z,28.40
2022-11-14T11:45:26.147Z,26.20
2022-11-14T11:50:47.227Z,26.50
2022-11-14T11:56:19.673Z,29.80
2022-11-14T12:01:40.658Z,31.00
2022-11-14T12:07:10.860Z,33.50
2022-11-14T12:12:43.564Z,32.70
2022-11-14T12:18:22.581Z,36.50
2022-11-14T12:24:17.540Z,37.60
2022-11-14T12:29:53.343Z,32.80
2022-11-14T12:35:27.398Z,36.70
2022-11-14T12:41:00.424Z,35.50
2022-11-14T12:46:20.986Z,34.20
2022-11-14T12:51:49.010Z,34.30
2022-11-14T12:57:37.640Z,29.80
2022-11-14T13:03:13.243Z,32.70
2022-11-14T13:09:11.306Z,31.40
2022-11-14T13:15:06.748Z,35.10
2022-11-14T13:20:54.429Z,31.90
2022-11-14T13:26:14.831Z,29.90
2022-11-14T13:42:43.964Z,33.90
2022-11-14T13:48:20.155Z,32.60
2022-11-14T13:53:42.022Z,31.50
2022-11-14T13:59:27.750Z,28.80
2022-11-14T14:05:21.224Z,29.60
2022-11-14T14:10:43.306Z,39.30
2022-11-14T14:16:15.533Z,31.80
2022-11-14T14:22:08.587Z,34.10
2022-11-14T14:28:06.282Z,40.50
2022-11-14T14:33:26.991Z,41.60
2022-11-14T14:38:47.934Z,37.40
2022-11-14T14:44:27.321Z,35.70
2022-11-14T14:49:47.911Z,37.70
2022-11-14T14:55:20.131Z,36.60
2022-11-14T15:00:40.564Z,36.10
2022-11-14T15:06:17.893Z,82.10
2022-11-14T15:11:43.793Z,51.40
2022-11-14T15:17:05.093Z,47.30
2022-11-14T15:22:29.353Z,44.90
2022-11-14T15:27:58.941Z,42.30
2022-11-14T15:33:31.174Z,51.10
2022-11-14T15:39:27.114Z,42.20
2022-11-14T15:44:49.162Z,43.40
2022-11-14T15:50:13.064Z,45.90
2022-11-14T15:55:33.605Z,56.40
2022-11-14T16:00:55.748Z,54.60
2022-11-14T16:06:17.129Z,50.10
2022-11-14T16:11:38.012Z,58.30
2022-11-14T16:16:58.868Z,61.70
2022-11-14T16:22:19.608Z,60.00
2022-11-14T16:27:40.392Z,66.00
2022-11-14T16:33:01.001Z,61.30
2022-11-14T16:38:21.670Z,62.00
2022-11-14T16:43:42.366Z,62.70
2022-11-14T16:49:03.185Z,60.60
2022-11-14T16:54:24.666Z,55.70
2022-11-14T16:59:45.518Z,54.50
2022-11-14T17:05:06.358Z,53.00
2022-11-14T17:10:26.686Z,48.80
2022-11-14T17:15:47.154Z,50.90
2022-11-14T17:21:10.572Z,53.90
2022-11-14T17:26:31.316Z,50.90
2022-11-14T17:31:51.987Z,39.70
2022-11-14T17:37:12.611Z,48.60
2022-11-14T17:42:33.247Z,52.70
2022-11-14T17:47:54.104Z,54.70
2022-11-14T17:53:15.207Z,50.50
2022-11-14T17:58:35.783Z,54.00
2022-11-14T18:04:00.402Z,50.20
2022-11-14T18:09:23.726Z,46.70
2022-11-14T18:14:44.609Z,48.80
2022-11-14T18:20:06.078Z,54.00
2022-11-14T18:25:26.479Z,48.20
2022-11-14T18:30:55.667Z,49.50
2022-11-14T18:36:17.347Z,42.00
2022-11-14T18:41:38.127Z,39.50
2022-11-14T18:46:58.991Z,38.10
2022-11-14T18:52:19.841Z,42.40
2022-11-14T18:57:40.520Z,36.90
2022-11-14T19:03:05.812Z,44.20
2022-11-14T19:08:27.334Z,40.50
2022-11-14T19:13:48.051Z,44.70
2022-11-14T19:19:09.401Z,40.20
2022-11-14T19:24:30.134Z,40.80
2022-11-14T19:29:51.000Z,37.70
2022-11-14T19:35:14.805Z,32.40
2022-11-14T19:40:39.753Z,38.40
2022-11-14T19:46:02.903Z,33.50
2022-11-14T19:51:24.608Z,33.90
2022-11-14T19:56:45.243Z,36.50
2022-11-14T20:02:06.116Z,39.50
2022-11-14T20:07:26.800Z,35.10
2022-11-14T20:12:47.305Z,46.20
2022-11-14T20:18:08.078Z,45.40
2022-11-14T20:23:29.348Z,54.60
2022-11-14T20:28:52.896Z,53.90
2022-11-14T20:34:13.770Z,46.30
2022-11-14T20:39:34.448Z,46.50
2022-11-14T20:44:55.048Z,45.10
2022-11-14T21:06:17.168Z,38.10
2022-11-14T21:11:37.744Z,46.00
2022-11-14T21:16:58.457Z,44.70
2022-11-14T21:22:19.575Z,34.80
2022-11-14T21:27:40.150Z,37.40
2022-11-14T21:33:00.760Z,33.50
2022-11-14T21:38:21.640Z,37.00
2022-11-14T21:43:43.772Z,36.30
2022-11-14T21:49:04.484Z,41.10
2022-11-14T21:54:25.155Z,31.00
2022-11-14T21:59:45.953Z,33.80
2022-11-14T22:05:08.038Z,43.40
2022-11-14T22:10:28.482Z,38.00
2022-11-14T22:15:51.263Z,41.70
2022-11-14T22:21:12.181Z,47.40
2022-11-14T22:26:35.413Z,46.00
2022-11-14T22:31:57.534Z,34.80
2022-11-14T22:37:18.153Z,31.10
2022-11-14T22:42:38.759Z,36.00
2022-11-14T22:48:03.387Z,35.00
2022-11-14T22:53:24.044Z,37.30
2022-11-14T23:04:05.666Z,28.70
2022-11-14T23:09:27.257Z,30.90
2022-11-14T23:14:47.931Z,27.90
2022-11-14T23:20:15.104Z,34.60
2022-11-14T23:25:38.007Z,31.00
2022-11-14T23:30:59.679Z,32.60
2022-11-14T23:36:20.317Z,23.90
2022-11-14T23:41:40.801Z,23.70
2022-11-14T23:47:01.764Z,22.10
2022-11-14T23:52:22.287Z,32.60
2022-11-14T23:57:42.973Z,31.20
